Time;durP1;ratioP1;P1;durP2;ratioP2;P2;SDS_P1;SDS_P2;PMS_P1;PMS_P2;Temp;Humidity;BMP_temperature;BMP_pressure;BME280_temperature;BME280_humidity;BME280_pressure;Samples;Min_cycle;Max_cycle;Signal;HPM_P1;HPM_P2
2021/12/14 00:02:00;;;;;;;7.05;6.35;;;19.10;45.40;;;;;;5036876;28;20199;-55
2021/12/14 00:04:32;;;;;;;6.50;6.00;;;19.00;45.30;;;;;;5036596;28;20199;-55
2021/12/14 00:07:00;;;;;;;7.20;6.50;;;19.00;45.40;;;;;;5037362;28;20211;-55
2021/12/14 00:09:31;;;;;;;7.07;6.47;;;19.00;45.40;;;;;;5036372;28;20694;-55
2021/12/14 00:12:13;;;;;;;6.60;6.10;;;19.00;45.50;;;;;;5054394;28;20183;-56
2021/12/14 00:17:29;;;;;;;7.18;6.57;;;19.00;45.40;;;;;;5036443;28;20219;-55
2021/12/14 00:19:59;;;;;;;7.32;5.80;;;19.00;45.50;;;;;;5054063;28;20188;-56
2021/12/14 00:22:34;;;;;;;6.38;5.88;;;18.90;45.30;;;;;;5036193;28;20540;-55
2021/12/14 00:25:00;;;;;;;6.57;5.97;;;18.90;45.40;;;;;;5035893;28;20252;-55
2021/12/14 00:27:27;;;;;;;7.05;6.35;;;18.90;45.40;;;;;;5035748;28;20239;-55
2021/12/14 00:29:59;;;;;;;6.63;6.03;;;18.90;45.40;;;;;;5035872;28;20215;-55
2021/12/14 00:32:28;;;;;;;6.60;6.00;;;18.90;45.40;;;;;;5036117;28;20632;-55
2021/12/14 00:34:58;;;;;;;6.65;6.05;;;18.90;45.40;;;;;;5035631;28;20192;-55
2021/12/14 00:37:27;;;;;;;6.43;5.82;;;18.80;45.40;;;;;;5035507;28;20600;-55
2021/12/14 00:39:55;;;;;;;6.65;6.05;;;18.80;45.50;;;;;;5053790;28;20192;-55
2021/12/14 00:42:22;;;;;;;6.32;5.82;;;18.80;45.40;;;;;;5035824;28;20656;-55
2021/12/14 00:44:49;;;;;;;6.60;6.10;;;18.80;45.50;;;;;;5036216;28;20253;-55
2021/12/14 00:47:18;;;;;;;6.18;5.63;;;18.80;45.50;;;;;;5053844;28;20206;-55
2021/12/14 00:49:48;;;;;;;5.95;5.47;;;18.70;45.50;;;;;;5035420;28;20246;-55
2021/12/14 00:52:15;;;;;;;6.78;6.18;;;18.70;45.60;;;;;;5035308;28;20199;-55
2021/12/14 00:54:42;;;;;;;5.97;5.50;;;18.70;45.60;;;;;;5035262;28;20206;-55
2021/12/14 00:57:10;;;;;;;6.10;5.60;;;18.70;45.50;;;;;;5035072;28;20640;-55
2021/12/14 00:59:37;;;;;;;5.93;5.43;;;18.70;45.60;;;;;;5035078;28;20527;-55
2021/12/14 01:02:07;;;;;;;5.90;5.40;;;18.60;45.50;;;;;;5034951;28;20191;-55
2021/12/14 01:04:37;;;;;;;6.20;5.70;;;18.60;45.50;;;;;;5035036;28;20192;-55
2021/12/14 01:07:05;;;;;;;5.70;5.22;;;18.60;45.60;;;;;;5034210;28;20684;-55
2021/12/14 01:09:35;;;;;;;6.03;5.50;;;18.60;45.60;;;;;;5034960;28;20196;-55
2021/12/14 01:12:06;;;;;;;5.82;5.43;;;18.60;45.60;;;;;;5035043;28;20581;-55
2021/12/14 01:14:41;;;;;;;5.88;5.35;;;18.60;45.70;;;;;;5035170;28;20203;-55
2021/12/14 01:17:14;;;;;;;6.15;5.57;;;18.50;45.50;;;;;;5035071;28;20245;-55
2021/12/14 01:19:44;;;;;;;6.05;5.65;;;18.50;45.60;;;;;;5035148;28;20263;-55
2021/12/14 01:22:33;;;;;;;6.28;5.78;;;18.50;45.70;;;;;;5034929;28;20246;-55
2021/12/14 01:25:06;;;;;;;6.25;5.75;;;18.50;45.70;;;;;;5034948;28;20666;-55
2021/12/14 01:27:39;;;;;;;6.25;5.72;;;18.50;45.80;;;;;;5034717;28;20294;-55
2021/12/14 01:30:13;;;;;;;5.95;5.45;;;18.50;45.80;;;;;;5035051;28;20735;-55
2021/12/14 01:32:44;;;;;;;6.10;5.60;;;18.50;45.90;;;;;;5034994;28;20187;-55
2021/12/14 01:35:14;;;;;;;6.10;5.60;;;18.40;45.60;;;;;;5034693;28;20192;-55
2021/12/14 01:37:47;;;;;;;6.22;5.65;;;18.40;45.70;;;;;;5034456;28;20574;-55
2021/12/14 01:40:45;;;;;;;6.40;5.80;;;18.40;45.80;;;;;;5052877;28;20199;-55
2021/12/14 01:43:08;;;;;;;6.03;5.43;;;18.40;45.80;;;;;;5034509;28;20268;-55
2021/12/14 01:45:36;;;;;;;6.25;5.65;;;18.40;45.80;;;;;;5034485;28;20575;-55
2021/12/14 01:48:05;;;;;;;5.75;5.35;;;18.40;45.80;;;;;;5034392;28;20234;-55
2021/12/14 01:50:44;;;;;;;6.20;5.70;;;18.40;45.90;;;;;;5034668;28;20622;-55
2021/12/14 01:53:15;;;;;;;5.57;5.18;;;18.30;45.70;;;;;;5035191;28;20198;-55
2021/12/14 01:55:50;;;;;;;7.25;5.10;;;18.30;45.80;;;;;;5034845;28;20199;-55
2021/12/14 01:58:18;;;;;;;6.45;5.95;;;18.30;45.90;;;;;;5034752;28;20321;-55
2021/12/14 02:00:47;;;;;;;5.80;5.30;;;18.30;45.80;;;;;;5034455;28;20191;-55
2021/12/14 02:03:15;;;;;;;6.05;5.55;;;18.30;45.90;;;;;;5034680;28;20199;-55
2021/12/14 02:05:45;;;;;;;5.90;5.40;;;18.30;45.90;;;;;;5034619;28;20195;-55
2021/12/14 02:08:18;;;;;;;5.95;5.45;;;18.30;45.90;;;;;;5034178;28;20273;-55
2021/12/14 02:10:47;;;;;;;5.88;5.38;;;18.30;45.90;;;;;;5034527;28;20187;-55
2021/12/14 02:13:43;;;;;;;5.85;5.35;;;18.20;45.90;;;;;;5067177;22;20261;-57
2021/12/14 02:16:16;;;;;;;5.60;5.10;;;18.20;45.80;;;;;;5051855;28;20226;-57
2021/12/14 02:18:44;;;;;;;6.30;5.80;;;18.20;45.90;;;;;;5055361;28;20211;-57
2021/12/14 02:21:14;;;;;;;5.60;5.20;;;18.20;45.90;;;;;;5055230;28;20572;-57
2021/12/14 02:23:42;;;;;;;5.70;5.20;;;18.20;46.00;;;;;;5038258;28;20235;-57
2021/12/14 02:26:12;;;;;;;5.70;5.20;;;18.20;46.10;;;;;;5038322;28;20200;-57
2021/12/14 02:28:40;;;;;;;5.65;5.15;;;18.10;46.00;;;;;;5038472;28;20196;-57
2021/12/14 02:31:08;;;;;;;5.60;5.10;;;18.20;46.10;;;;;;5056324;28;20636;-57
2021/12/14 02:33:37;;;;;;;5.90;5.38;;;18.10;46.10;;;;;;5039308;28;20298;-57
2021/12/14 02:36:06;;;;;;;4.80;4.45;;;18.10;46.00;;;;;;5038510;28;20195;-57
2021/12/14 02:38:37;;;;;;;5.70;5.30;;;18.10;46.10;;;;;;5038450;28;20226;-57
2021/12/14 02:41:05;;;;;;;6.28;5.68;;;18.10;46.10;;;;;;5038039;28;20188;-57
2021/12/14 02:43:50;;;;;;;5.68;5.18;;;18.10;46.70;;;;;;5054861;28;20195;-57
2021/12/14 02:46:21;;;;;;;5.75;5.13;;;18.10;46.20;;;;;;5054279;28;20239;-57
2021/12/14 02:48:51;;;;;;;5.68;5.18;;;18.10;46.30;;;;;;5054591;28;20213;-57
2021/12/14 02:51:20;;;;;;;5.68;5.18;;;18.00;46.20;;;;;;5054325;28;20571;-57
2021/12/14 02:53:50;;;;;;;5.95;5.38;;;18.00;46.20;;;;;;5037858;28;20222;-57
2021/12/14 02:56:19;;;;;;;5.78;5.28;;;18.00;46.10;;;;;;5037134;28;20321;-57
2021/12/14 02:58:46;;;;;;;5.30;4.80;;;18.00;46.20;;;;;;5055538;28;20207;-57
2021/12/14 03:01:16;;;;;;;5.72;5.22;;;18.00;46.30;;;;;;5055373;28;20265;-57
2021/12/14 03:03:43;;;;;;;5.40;5.00;;;18.00;46.30;;;;;;5053825;28;20195;-57
2021/12/14 03:06:15;;;;;;;5.47;4.97;;;17.90;46.30;;;;;;5037138;28;20276;-57
2021/12/14 03:08:56;;;;;;;5.45;4.95;;;18.00;46.30;;;;;;5037015;28;20201;-57
2021/12/14 03:11:26;;;;;;;5.32;4.82;;;18.00;46.40;;;;;;5054947;28;20176;-57
2021/12/14 03:13:53;;;;;;;5.60;5.07;;;17.90;46.30;;;;;;5055916;28;20211;-57
2021/12/14 03:16:23;;;;;;;5.40;4.90;;;17.90;46.30;;;;;;5053600;28;20239;-57
2021/12/14 03:18:51;;;;;;;5.10;4.70;;;17.90;46.30;;;;;;5036907;28;20327;-57
2021/12/14 03:21:20;;;;;;;5.25;4.82;;;17.90;46.40;;;;;;5036807;28;20287;-57
2021/12/14 03:23:48;;;;;;;5.45;4.95;;;17.90;46.30;;;;;;5162704;22;20227;-65
2021/12/14 03:26:20;;;;;;;5.47;4.97;;;17.90;46.30;;;;;;5051662;28;20643;-65
2021/12/14 03:28:50;;;;;;;5.13;4.63;;;17.90;46.30;;;;;;5053742;28;20191;-65
2021/12/14 03:31:26;;;;;;;5.50;5.00;;;17.90;46.30;;;;;;5054610;28;20714;-65
2021/12/14 03:33:56;;;;;;;5.05;4.65;;;17.80;46.20;;;;;;5068108;28;20310;-65
2021/12/14 03:36:25;;;;;;;5.38;4.70;;;17.80;46.30;;;;;;5068621;28;20234;-65
2021/12/14 03:38:55;;;;;;;4.70;4.30;;;17.80;46.30;;;;;;5035926;28;20216;-65
2021/12/14 03:41:26;;;;;;;5.30;4.90;;;17.80;46.30;;;;;;5035241;28;20231;-65
2021/12/14 03:46:48;;;;;;;5.22;4.72;;;17.80;46.30;;;;;;5049808;28;20595;-65
2021/12/14 03:49:16;;;;;;;5.00;4.60;;;17.80;46.40;;;;;;5053436;28;20229;-67
2021/12/14 03:51:44;;;;;;;5.40;4.90;;;17.80;46.40;;;;;;5033397;28;20631;-64
2021/12/14 03:54:12;;;;;;;5.45;4.93;;;17.80;46.50;;;;;;5049690;28;20196;-65
2021/12/14 03:56:40;;;;;;;5.07;4.68;;;17.80;46.40;;;;;;5033542;28;20196;-67
2021/12/14 03:59:07;;;;;;;4.93;4.50;;;17.70;46.30;;;;;;5050676;28;20714;-65
2021/12/14 04:01:37;;;;;;;4.70;4.30;;;17.70;46.20;;;;;;5032964;28;20204;-64
2021/12/14 04:04:11;;;;;;;4.45;4.07;;;17.70;46.40;;;;;;5032966;28;20250;-65
2021/12/14 04:06:40;;;;;;;4.85;4.45;;;17.70;46.40;;;;;;5032945;28;20341;-67
2021/12/14 04:09:08;;;;;;;5.40;4.40;;;17.70;46.30;;;;;;5032985;28;20292;-64
2021/12/14 04:11:36;;;;;;;5.32;4.82;;;17.70;46.40;;;;;;5032617;28;20196;-65
2021/12/14 04:14:03;;;;;;;5.10;4.63;;;17.70;46.40;;;;;;5032989;28;20196;-67
2021/12/14 04:16:37;;;;;;;5.68;5.07;;;17.70;46.60;;;;;;5032934;28;20195;-64
2021/12/14 04:19:09;;;;;;;4.63;4.22;;;17.70;46.70;;;;;;5034034;28;20211;-64
2021/12/14 04:21:39;;;;;;;4.93;4.47;;;17.70;46.60;;;;;;5033817;28;20717;-64
2021/12/14 04:24:09;;;;;;;5.65;5.15;;;17.70;46.50;;;;;;5049378;28;20223;-65
2021/12/14 04:26:37;;;;;;;5.30;4.80;;;17.70;46.40;;;;;;5033010;28;20203;-66
2021/12/14 04:29:04;;;;;;;6.22;5.28;;;17.70;46.30;;;;;;5033932;28;20234;-66
2021/12/14 04:31:34;;;;;;;5.47;4.97;;;17.70;46.30;;;;;;5032645;28;20558;-67
2021/12/14 04:34:02;;;;;;;4.55;4.15;;;17.80;46.30;;;;;;5032424;28;20226;-65
2021/12/14 04:36:30;;;;;;;5.93;5.05;;;17.70;46.20;;;;;;5032512;28;20688;-63
2021/12/14 04:39:03;;;;;;;5.05;4.55;;;17.80;46.20;;;;;;5032372;28;20219;-66
2021/12/14 04:52:36;;;;;;;5.18;4.63;;;17.90;46.00;;;;;;5032167;28;20192;-64
2021/12/14 04:55:05;;;;;;;5.10;4.70;;;17.90;45.90;;;;;;5032087;28;20672;-66
2021/12/14 04:57:34;;;;;;;5.10;4.60;;;17.90;45.90;;;;;;5031864;28;20267;-65
2021/12/14 05:00:14;;;;;;;4.88;4.38;;;17.90;45.80;;;;;;5048790;28;20286;-66
2021/12/14 05:02:46;;;;;;;5.20;4.70;;;17.90;45.90;;;;;;5032329;28;20286;-66
2021/12/14 05:05:18;;;;;;;4.72;4.32;;;17.90;45.80;;;;;;5032480;28;20328;-66
2021/12/14 05:09:20;;;;;;;4.78;4.38;;;18.00;45.80;;;;;;5032093;28;20246;-64
2021/12/14 05:10:52;;;;;;;5.65;4.97;;;17.90;46.30;;;;;;5048628;28;20192;-67
2021/12/14 05:13:23;;;;;;;4.93;4.43;;;17.90;45.60;;;;;;5031997;28;20192;-67
2021/12/14 05:15:51;;;;;;;4.15;3.85;;;18.00;45.80;;;;;;5031898;28;20223;-67
2021/12/14 05:18:18;;;;;;;4.40;4.00;;;17.90;45.60;;;;;;5031567;28;20216;-67
2021/12/14 05:20:47;;;;;;;4.45;4.05;;;17.90;45.60;;;;;;5048702;28;20576;-65
2021/12/14 05:23:21;;;;;;;4.50;4.10;;;18.00;45.60;;;;;;5031632;28;20199;-65
2021/12/14 05:25:48;;;;;;;3.90;3.60;;;17.90;45.50;;;;;;5031463;28;20282;-67
2021/12/14 05:28:18;;;;;;;4.63;4.22;;;18.00;45.60;;;;;;5033350;28;20268;-63
2021/12/14 05:30:49;;;;;;;4.18;3.78;;;18.00;45.50;;;;;;5032030;28;20525;-64
2021/12/14 05:33:26;;;;;;;3.90;3.60;;;17.90;45.40;;;;;;5031865;28;20536;-67
2021/12/14 05:35:57;;;;;;;4.40;4.00;;;18.00;45.50;;;;;;5031325;28;20244;-67
2021/12/14 05:38:42;;;;;;;4.20;3.90;;;18.00;45.40;;;;;;5048229;28;20226;-67
2021/12/14 05:44:10;;;;;;;4.05;3.75;;;18.00;45.40;;;;;;5031404;28;20599;-67
2021/12/14 05:46:50;;;;;;;4.80;4.35;;;18.00;45.30;;;;;;5031953;28;20187;-67
2021/12/14 05:49:44;;;;;;;4.32;3.90;;;18.10;45.20;;;;;;5031742;28;20196;-65
2021/12/14 05:52:16;;;;;;;4.00;3.70;;;18.10;45.10;;;;;;5032624;28;20196;-64
2021/12/14 05:54:46;;;;;;;4.35;3.95;;;18.10;45.20;;;;;;5035983;28;20216;-65
2021/12/14 05:57:15;;;;;;;4.13;3.72;;;18.10;45.10;;;;;;5052242;28;20200;-65
2021/12/14 05:59:43;;;;;;;4.07;3.78;;;18.10;45.10;;;;;;5035839;28;20703;-65
2021/12/14 06:02:11;;;;;;;4.55;4.15;;;18.10;45.70;;;;;;5035992;28;20710;-66
2021/12/14 06:04:42;;;;;;;4.43;4.03;;;18.10;45.00;;;;;;5035508;28;20227;-66
2021/12/14 06:07:10;;;;;;;4.05;3.75;;;18.10;45.10;;;;;;5052320;28;20200;-67
2021/12/14 06:09:39;;;;;;;4.07;3.78;;;18.10;44.90;;;;;;5035456;28;20561;-66
2021/12/14 06:12:16;;;;;;;4.18;3.88;;;18.10;44.90;;;;;;5052092;28;20191;-65
2021/12/14 06:14:51;;;;;;;4.30;3.97;;;18.10;44.90;;;;;;5035337;28;20265;-67
2021/12/14 06:17:22;;;;;;;4.22;3.83;;;18.20;44.90;;;;;;5052649;28;20194;-62
2021/12/14 06:19:51;;;;;;;4.20;3.90;;;18.20;45.00;;;;;;5035594;28;20243;-63
2021/12/14 06:22:19;;;;;;;3.80;3.50;;;18.20;44.90;;;;;;5052279;28;20203;-63
2021/12/14 06:24:48;;;;;;;4.50;4.10;;;18.10;44.90;;;;;;5052178;28;20239;-64
2021/12/14 06:27:20;;;;;;;4.22;3.83;;;18.20;45.00;;;;;;5052672;28;20630;-66
2021/12/14 06:29:49;;;;;;;4.40;4.00;;;18.10;44.80;;;;;;5036057;28;20192;-65
2021/12/14 06:32:17;;;;;;;4.22;3.83;;;18.20;44.90;;;;;;5056926;28;20226;-67
2021/12/14 06:34:46;;;;;;;4.13;3.83;;;18.20;44.90;;;;;;5066971;28;20224;-67
2021/12/14 06:38:06;;;;;;;4.03;3.72;;;18.20;44.80;;;;;;5037052;28;20234;-66
2021/12/14 06:40:34;;;;;;;3.72;3.42;;;18.20;44.80;;;;;;5035882;28;20219;-65
2021/12/14 06:43:04;;;;;;;4.00;3.70;;;18.20;44.90;;;;;;5036212;28;20196;-65
2021/12/14 06:45:33;;;;;;;3.97;3.67;;;18.20;44.80;;;;;;5037292;28;20250;-66
2021/12/14 06:48:04;;;;;;;4.20;3.80;;;18.20;44.70;;;;;;5071789;28;20211;-63
2021/12/14 06:50:36;;;;;;;4.25;3.95;;;18.20;44.80;;;;;;5054128;28;20203;-66
2021/12/14 06:53:08;;;;;;;4.05;3.75;;;18.20;44.70;;;;;;5054780;28;20192;-66
2021/12/14 06:56:04;;;;;;;4.38;3.97;;;18.20;44.50;;;;;;5032413;28;20703;-66
2021/12/14 06:59:04;;;;;;;4.10;3.80;;;18.20;44.40;;;;;;5055677;28;20698;-65
2021/12/14 07:01:49;;;;;;;3.67;3.47;;;18.20;44.40;;;;;;5054670;28;20282;-67
2021/12/14 07:04:18;;;;;;;4.13;3.83;;;18.20;44.40;;;;;;5053256;28;20219;-66
2021/12/14 07:06:49;;;;;;;3.97;3.67;;;18.20;44.40;;;;;;5049787;28;20196;-67
2021/12/14 07:09:18;;;;;;;3.85;3.55;;;18.20;44.40;;;;;;5033024;28;20741;-64
2021/12/14 07:11:47;;;;;;;4.40;4.00;;;18.20;44.50;;;;;;5050889;28;20291;-63
2021/12/14 07:14:22;;;;;;;3.30;3.10;;;18.20;44.40;;;;;;5034388;28;20202;-65
2021/12/14 07:16:49;;;;;;;3.90;3.60;;;18.20;45.00;;;;;;5034277;28;20192;-66
2021/12/14 07:19:16;;;;;;;3.90;3.60;;;18.20;44.40;;;;;;5034026;28;20707;-65
2021/12/14 07:21:45;;;;;;;3.70;3.40;;;18.20;44.40;;;;;;5033982;28;20196;-65
2021/12/14 07:24:34;;;;;;;3.58;3.38;;;18.20;44.40;;;;;;5034245;28;20196;-66
2021/12/14 07:27:23;;;;;;;4.00;3.70;;;18.20;44.40;;;;;;5032890;28;20228;-64
2021/12/14 07:29:52;;;;;;;3.60;3.30;;;18.30;44.40;;;;;;5034475;28;20219;-65
2021/12/14 07:32:37;;;;;;;3.92;3.63;;;18.20;44.40;;;;;;5035397;28;20275;-64
2021/12/14 07:35:20;;;;;;;3.47;3.28;;;18.20;44.40;;;;;;5033794;28;20220;-63
2021/12/14 07:37:47;;;;;;;4.20;3.90;;;18.20;44.40;;;;;;5034891;28;20173;-64
2021/12/14 07:40:14;;;;;;;3.60;3.30;;;18.30;44.40;;;;;;5034790;28;20766;-66
2021/12/14 07:42:42;;;;;;;3.53;3.30;;;18.30;44.40;;;;;;5033579;28;20226;-65
2021/12/14 07:45:11;;;;;;;3.45;3.25;;;18.30;44.50;;;;;;5033414;28;20230;-63
2021/12/14 07:47:39;;;;;;;3.53;3.30;;;18.30;44.40;;;;;;5033326;28;20200;-63
2021/12/14 07:50:06;;;;;;;3.65;3.35;;;18.30;44.40;;;;;;5049566;28;20204;-66
2021/12/14 07:52:35;;;;;;;3.55;3.30;;;18.30;44.60;;;;;;5049843;28;20275;-65
2021/12/14 07:55:06;;;;;;;3.08;2.88;;;18.30;44.60;;;;;;5034620;28;20287;-64
2021/12/14 07:57:34;;;;;;;3.22;3.00;;;18.30;44.40;;;;;;5033438;28;20188;-64
2021/12/14 08:00:15;;;;;;;3.40;3.20;;;18.30;44.40;;;;;;5033125;28;20247;-62
2021/12/14 08:02:43;;;;;;;3.15;2.95;;;18.30;44.40;;;;;;5033225;28;20195;-64
2021/12/14 08:05:14;;;;;;;3.15;2.95;;;18.30;44.40;;;;;;5033114;28;20220;-65
2021/12/14 08:07:44;;;;;;;3.20;3.00;;;18.30;44.40;;;;;;5032951;28;20200;-64
2021/12/14 08:10:14;;;;;;;3.20;3.00;;;18.30;44.40;;;;;;5032949;28;20216;-67
2021/12/14 08:12:43;;;;;;;3.00;2.80;;;18.40;44.50;;;;;;5049471;28;20207;-66
2021/12/14 08:15:23;;;;;;;3.03;2.83;;;18.40;44.20;;;;;;5032502;28;20222;-65
2021/12/14 08:18:00;;;;;;;3.22;2.92;;;18.40;44.10;;;;;;5032945;28;20211;-67
2021/12/14 08:20:27;;;;;;;3.30;3.10;;;18.40;44.00;;;;;;5032452;28;20223;-65
2021/12/14 08:22:56;;;;;;;3.10;2.90;;;18.40;43.90;;;;;;5034053;28;20565;-66
2021/12/14 08:25:25;;;;;;;3.20;3.00;;;18.40;43.90;;;;;;5032679;28;20224;-65
2021/12/14 08:28:00;;;;;;;3.13;2.92;;;18.50;44.00;;;;;;5032659;28;20192;-65
2021/12/14 08:30:29;;;;;;;3.15;2.95;;;18.50;44.00;;;;;;5033908;28;20176;-66
2021/12/14 08:32:56;;;;;;;3.30;3.10;;;18.50;44.00;;;;;;5033861;28;20644;-67
2021/12/14 08:35:23;;;;;;;2.83;2.63;;;18.50;43.80;;;;;;5032285;28;20555;-66
2021/12/14 08:37:54;;;;;;;2.95;2.75;;;18.50;43.80;;;;;;5032414;28;20254;-65
2021/12/14 08:40:22;;;;;;;3.10;2.90;;;18.50;43.80;;;;;;5033602;28;20200;-65
2021/12/14 08:43:00;;;;;;;3.15;2.95;;;18.50;43.60;;;;;;5033503;28;20242;-63
2021/12/14 08:45:29;;;;;;;3.33;3.08;;;18.60;43.80;;;;;;5031953;28;20277;-65
2021/12/14 08:48:05;;;;;;;3.13;2.92;;;18.60;43.60;;;;;;5032067;28;20660;-66
2021/12/14 08:50:36;;;;;;;2.92;2.72;;;18.60;43.80;;;;;;5033510;28;20169;-66
2021/12/14 08:53:04;;;;;;;3.28;3.08;;;18.60;43.70;;;;;;5048455;28;20192;-65
2021/12/14 08:55:32;;;;;;;3.30;3.10;;;18.60;43.50;;;;;;5048627;28;20215;-66
2021/12/14 08:57:59;;;;;;;3.20;2.90;;;18.60;43.50;;;;;;5031929;28;20247;-65
2021/12/14 09:00:29;;;;;;;3.13;2.92;;;18.60;43.60;;;;;;5033132;28;20216;-65
2021/12/14 09:02:59;;;;;;;2.92;2.72;;;18.60;43.50;;;;;;5032864;28;20192;-65
2021/12/14 09:05:29;;;;;;;3.03;2.83;;;18.70;44.20;;;;;;5032775;28;20251;-64
2021/12/14 09:07:56;;;;;;;3.72;3.42;;;18.70;43.50;;;;;;5034078;28;20656;-62
2021/12/14 09:10:25;;;;;;;3.50;3.30;;;18.70;43.20;;;;;;5032648;28;20192;-65
2021/12/14 09:12:52;;;;;;;3.47;3.17;;;18.80;43.30;;;;;;5049417;28;20200;-66
2021/12/14 09:15:23;;;;;;;2.92;2.72;;;18.80;43.10;;;;;;5033600;28;20212;-63
2021/12/14 09:17:52;;;;;;;3.10;2.90;;;18.80;42.90;;;;;;5033686;28;20185;-65
2021/12/14 09:20:21;;;;;;;3.58;3.28;;;18.80;43.10;;;;;;5032702;28;20215;-65
2021/12/14 09:22:51;;;;;;;3.33;3.13;;;18.90;42.80;;;;;;5033978;28;20211;-63
2021/12/14 09:25:20;;;;;;;3.47;3.28;;;18.90;42.70;;;;;;5036417;28;20234;-64
2021/12/14 09:27:47;;;;;;;3.00;2.80;;;18.90;42.50;;;;;;5036132;28;20188;-66
2021/12/14 09:30:16;;;;;;;3.35;3.05;;;18.90;42.80;;;;;;5033657;28;20192;-65
2021/12/14 09:32:43;;;;;;;3.20;3.00;;;19.00;43.00;;;;;;5032650;28;20199;-64
2021/12/14 09:35:16;;;;;;;3.08;2.88;;;19.00;42.60;;;;;;5031554;28;20220;-63
2021/12/14 09:37:43;;;;;;;3.40;3.20;;;19.00;42.80;;;;;;5032896;28;20184;-63
2021/12/14 09:40:13;;;;;;;3.17;2.97;;;19.00;42.90;;;;;;5031448;28;20212;-63
2021/12/14 09:42:41;;;;;;;3.40;3.20;;;19.00;42.90;;;;;;5048112;28;20801;-66
2021/12/14 09:47:46;;;;;;;3.58;3.28;;;19.10;43.60;;;;;;5012235;28;20212;-65
2021/12/14 09:50:19;;;;;;;3.67;3.17;;;19.10;43.60;;;;;;5012546;28;20189;-64
2021/12/14 09:52:47;;;;;;;3.22;3.03;;;19.10;44.40;;;;;;5012391;28;20188;-64
2021/12/14 09:55:19;;;;;;;4.00;3.70;;;19.20;44.80;;;;;;5012401;28;20216;-64
2021/12/14 09:57:48;;;;;;;3.17;2.75;;;19.20;44.20;;;;;;5012435;28;20220;-65
2021/12/14 10:00:16;;;;;;;3.38;3.08;;;19.20;44.50;;;;;;5013940;28;20213;-67
2021/12/14 10:02:43;;;;;;;3.75;3.35;;;19.20;44.20;;;;;;5012636;28;20236;-67
2021/12/14 10:05:15;;;;;;;3.90;3.30;;;19.20;44.00;;;;;;5012735;28;20672;-66
2021/12/14 10:07:43;;;;;;;3.97;3.58;;;19.20;44.00;;;;;;5013713;28;20224;-68
2021/12/14 10:10:13;;;;;;;3.58;3.30;;;19.20;44.20;;;;;;5012083;28;20339;-66
2021/12/14 10:12:50;;;;;;;3.58;3.28;;;19.30;44.20;;;;;;5013040;28;20196;-67
2021/12/14 10:15:21;;;;;;;6.32;3.20;;;19.30;43.70;;;;;;5011854;28;20189;-67
2021/12/14 10:17:48;;;;;;;3.33;3.03;;;19.30;44.10;;;;;;5012043;28;20197;-67
2021/12/14 10:20:19;;;;;;;3.40;3.20;;;19.30;44.20;;;;;;5012050;28;20307;-67
2021/12/14 10:22:51;;;;;;;3.20;3.00;;;19.30;44.00;;;;;;5013300;28;20174;-67
2021/12/14 10:25:19;;;;;;;3.28;3.08;;;19.30;43.70;;;;;;5011827;28;20543;-68
2021/12/14 10:27:47;;;;;;;4.32;2.85;;;19.40;43.60;;;;;;5013297;28;20197;-68
2021/12/14 10:30:16;;;;;;;4.18;3.38;;;19.40;43.50;;;;;;5013221;28;20181;-67
2021/12/14 10:32:43;;;;;;;3.40;3.10;;;19.40;43.80;;;;;;5011978;28;20295;-67
2021/12/14 10:35:14;;;;;;;4.07;3.30;;;19.40;43.60;;;;;;5011630;28;20205;-67
2021/12/14 10:37:57;;;;;;;3.03;2.83;;;19.40;43.80;;;;;;5012016;28;20251;-67
2021/12/14 10:43:16;;;;;;;2.70;2.50;;;19.40;43.50;;;;;;5015590;28;20193;-67
2021/12/14 10:45:46;;;;;;;3.67;3.38;;;19.40;43.30;;;;;;5015273;28;20229;-67
2021/12/14 10:48:14;;;;;;;3.50;2.92;;;19.40;43.00;;;;;;5015789;28;20224;-67
2021/12/14 10:50:42;;;;;;;3.10;2.90;;;19.40;43.10;;;;;;5015083;28;20192;-67
2021/12/14 10:53:10;;;;;;;3.75;3.15;;;19.40;43.30;;;;;;5015160;28;20201;-67
2021/12/14 10:55:42;;;;;;;3.10;2.90;;;19.40;43.20;;;;;;5014988;28;20423;-67
2021/12/14 10:58:10;;;;;;;3.60;3.22;;;19.50;43.10;;;;;;5015292;28;20263;-67
2021/12/14 11:00:39;;;;;;;3.40;3.10;;;19.50;43.20;;;;;;5016658;28;20219;-68
2021/12/14 11:03:09;;;;;;;3.45;3.15;;;19.50;43.10;;;;;;5015339;28;20208;-68
2021/12/14 11:05:37;;;;;;;3.45;3.15;;;19.50;43.00;;;;;;5016405;28;20219;-68
2021/12/14 11:08:05;;;;;;;3.20;3.00;;;19.60;43.10;;;;;;5015070;28;20207;-67
2021/12/14 11:10:33;;;;;;;3.88;3.58;;;19.60;43.10;;;;;;5015101;28;20227;-67
2021/12/14 11:13:04;;;;;;;3.55;3.25;;;19.60;43.10;;;;;;5014852;28;20668;-68
2021/12/14 11:15:35;;;;;;;3.35;3.05;;;19.60;42.90;;;;;;5014760;28;20260;-68
2021/12/14 11:18:08;;;;;;;3.33;3.03;;;19.60;42.90;;;;;;5014854;28;20569;-68
2021/12/14 11:20:39;;;;;;;3.50;3.20;;;19.60;42.90;;;;;;5015083;28;20215;-67
2021/12/14 11:23:08;;;;;;;3.72;3.42;;;19.60;42.80;;;;;;5014779;28;20557;-68
2021/12/14 11:25:39;;;;;;;3.30;3.00;;;19.60;42.50;;;;;;5014813;28;20247;-67
2021/12/14 11:28:09;;;;;;;3.17;2.97;;;19.70;42.70;;;;;;5016821;28;20637;-67
2021/12/14 11:30:38;;;;;;;3.50;3.20;;;19.70;42.90;;;;;;5015000;28;20201;-68
2021/12/14 11:33:08;;;;;;;4.28;3.35;;;19.60;42.70;;;;;;5015201;28;20266;-67
2021/12/14 11:35:37;;;;;;;3.83;3.47;;;19.70;42.70;;;;;;5016226;28;20236;-68
2021/12/14 11:38:10;;;;;;;3.75;3.00;;;19.70;42.70;;;;;;5014929;28;20496;-67
2021/12/14 11:40:37;;;;;;;4.35;3.38;;;19.70;42.80;;;;;;5015033;28;20598;-68
2021/12/14 11:43:14;;;;;;;4.30;3.90;;;19.70;42.60;;;;;;5015111;28;20197;-67
2021/12/14 11:45:41;;;;;;;4.28;3.63;;;19.70;43.30;;;;;;5016197;28;20231;-67
2021/12/14 11:48:08;;;;;;;3.55;3.33;;;19.70;42.70;;;;;;5014644;28;20262;-68
2021/12/14 11:50:38;;;;;;;3.67;3.38;;;19.70;42.50;;;;;;5014531;28;20679;-68
2021/12/14 11:53:14;;;;;;;3.53;3.22;;;19.80;42.60;;;;;;5015882;28;20197;-67
2021/12/14 11:55:43;;;;;;;3.33;3.10;;;19.80;42.60;;;;;;5016537;28;20212;-68
2021/12/14 11:58:26;;;;;;;3.50;3.20;;;19.80;42.50;;;;;;5016262;28;20201;-68
2021/12/14 12:00:55;;;;;;;3.92;3.60;;;19.90;42.50;;;;;;5016373;28;20623;-68
2021/12/14 12:03:26;;;;;;;3.97;3.33;;;19.90;42.50;;;;;;5017175;28;20553;-68
2021/12/14 12:06:00;;;;;;;3.88;3.50;;;19.90;42.70;;;;;;5015736;28;20266;-68
2021/12/14 12:11:12;;;;;;;3.40;3.10;;;19.90;42.40;;;;;;5016097;28;20213;-68
2021/12/14 12:16:25;;;;;;;4.25;3.85;;;20.00;42.40;;;;;;5433213;22;20231;-54
2021/12/14 12:19:13;;;;;;;3.70;3.40;;;20.00;42.40;;;;;;5038250;28;20643;-54
2021/12/14 12:21:40;;;;;;;3.75;3.42;;;20.00;42.30;;;;;;5055247;28;20203;-55
2021/12/14 12:24:22;;;;;;;4.00;3.60;;;20.00;42.40;;;;;;5055848;28;20226;-56
2021/12/14 12:26:51;;;;;;;4.40;3.92;;;20.00;42.20;;;;;;5038727;28;20588;-55
2021/12/14 12:29:26;;;;;;;4.72;3.90;;;20.00;42.30;;;;;;5056302;28;20191;-54
2021/12/14 12:32:06;;;;;;;3.83;3.53;;;20.00;42.10;;;;;;5051412;22;20230;-52
2021/12/14 12:34:35;;;;;;;3.95;3.28;;;20.00;42.20;;;;;;5053941;28;20187;-52
2021/12/14 12:37:02;;;;;;;3.90;3.60;;;20.00;42.30;;;;;;5053676;28;20560;-52
2021/12/14 12:39:31;;;;;;;5.00;3.80;;;20.00;42.30;;;;;;5036208;28;20203;-52
2021/12/14 12:41:59;;;;;;;3.70;3.40;;;20.00;42.30;;;;;;5053605;28;20203;-52
2021/12/14 12:44:28;;;;;;;3.85;3.33;;;20.00;42.30;;;;;;5053528;28;20652;-53
2021/12/14 12:46:58;;;;;;;4.10;3.65;;;20.00;42.40;;;;;;5053728;28;20216;-52
2021/12/14 12:49:26;;;;;;;4.43;3.40;;;20.00;42.30;;;;;;5053453;28;20187;-53
2021/12/14 12:52:18;;;;;;;3.80;3.50;;;20.00;42.40;;;;;;5035580;28;20235;-53
2021/12/14 12:54:56;;;;;;;4.00;3.70;;;20.00;42.50;;;;;;5021035;28;20211;-53
2021/12/14 12:57:53;;;;;;;4.07;3.28;;;20.00;42.50;;;;;;5053377;28;20215;-53
2021/12/14 13:00:28;;;;;;;4.20;3.70;;;20.00;42.70;;;;;;5053649;28;20231;-53
2021/12/14 13:02:59;;;;;;;4.28;3.25;;;20.00;42.70;;;;;;5052558;28;20175;-54
2021/12/14 13:05:34;;;;;;;4.63;3.38;;;20.00;42.60;;;;;;5053061;28;20206;-53
2021/12/14 13:08:09;;;;;;;3.80;3.50;;;20.00;42.80;;;;;;5053122;28;20290;-53
2021/12/14 13:10:37;;;;;;;3.90;3.15;;;20.00;42.70;;;;;;5035370;28;20605;-53
2021/12/14 13:13:08;;;;;;;3.30;3.10;;;20.00;42.80;;;;;;5052949;28;20199;-53
2021/12/14 13:15:46;;;;;;;4.65;3.58;;;20.00;42.80;;;;;;5035087;28;20207;-53
2021/12/14 13:18:43;;;;;;;3.25;2.90;;;20.00;43.40;;;;;;5034913;28;20598;-53
2021/12/14 13:21:28;;;;;;;3.75;3.35;;;20.00;42.80;;;;;;5034870;28;20211;-53
2021/12/14 13:24:05;;;;;;;4.20;3.75;;;20.00;43.50;;;;;;5033898;28;20632;-53
2021/12/14 13:26:41;;;;;;;3.97;3.67;;;20.00;42.60;;;;;;5034987;28;20635;-53
2021/12/14 13:29:37;;;;;;;3.72;3.42;;;20.00;42.90;;;;;;5052956;28;20269;-53
2021/12/14 13:32:08;;;;;;;5.85;3.58;;;20.00;43.70;;;;;;5034837;28;20290;-53
2021/12/14 13:34:38;;;;;;;5.05;4.03;;;20.00;43.00;;;;;;5034973;28;20612;-53
2021/12/14 13:37:06;;;;;;;4.50;4.10;;;20.10;43.20;;;;;;5052977;28;20221;-53
2021/12/14 13:39:33;;;;;;;4.50;4.13;;;20.00;42.60;;;;;;5035086;28;20233;-53
2021/12/14 13:42:45;;;;;;;4.47;3.83;;;20.00;42.50;;;;;;5034931;28;20298;-53